sensor_id;sensor_type;location;lat;lon;timestamp;temperature;humidity
17918;DHT22;9084;50.956;3.106;2023-04-24T00:01:21;9.30;99.90
17918;DHT22;9084;50.956;3.106;2023-04-24T00:03:47;9.30;99.90
17918;DHT22;9084;50.956;3.106;2023-04-24T00:06:13;9.20;99.90
17918;DHT22;9084;50.956;3.106;2023-04-24T00:08:41;9.20;99.90
17918;DHT22;9084;50.956;3.106;2023-04-24T00:11:11;9.20;99.90
17918;DHT22;9084;50.956;3.106;2023-04-24T00:13:37;9.20;99.90
17918;DHT22;9084;50.956;3.106;2023-04-24T00:16:03;9.10;99.90
17918;DHT22;9084;50.956;3.106;2023-04-24T00:18:29;9.10;99.90
17918;DHT22;9084;50.956;3.106;2023-04-24T00:20:54;9.10;99.90
17918;DHT22;9084;50.956;3.106;2023-04-24T00:23:20;9.10;99.90
17918;DHT22;9084;50.956;3.106;2023-04-24T00:25:46;9.10;99.90
17918;DHT22;9084;50.956;3.106;2023-04-24T00:28:16;9.10;99.90
17918;DHT22;9084;50.956;3.106;2023-04-24T00:30:42;9.00;99.90
17918;DHT22;9084;50.956;3.106;2023-04-24T00:33:08;9.00;99.90
17918;DHT22;9084;50.956;3.106;2023-04-24T00:35:33;9.00;99.90
17918;DHT22;9084;50.956;3.106;2023-04-24T00:37:59;9.00;99.90
17918;DHT22;9084;50.956;3.106;2023-04-24T00:40:27;9.00;99.90
17918;DHT22;9084;50.956;3.106;2023-04-24T00:42:56;9.10;99.90
17918;DHT22;9084;50.956;3.106;2023-04-24T00:45:21;9.00;99.90
17918;DHT22;9084;50.956;3.106;2023-04-24T00:47:48;9.00;99.90
17918;DHT22;9084;50.956;3.106;2023-04-24T00:50:15;9.10;99.90
17918;DHT22;9084;50.956;3.106;2023-04-24T00:52:41;9.10;99.90
17918;DHT22;9084;50.956;3.106;2023-04-24T00:55:09;9.10;99.90
17918;DHT22;9084;50.956;3.106;2023-04-24T00:57:38;9.10;99.90
17918;DHT22;9084;50.956;3.106;2023-04-24T01:00:05;9.10;99.90
17918;DHT22;9084;50.956;3.106;2023-04-24T01:02:37;9.10;99.90
17918;DHT22;9084;50.956;3.106;2023-04-24T01:05:07;9.10;99.90
17918;DHT22;9084;50.956;3.106;2023-04-24T01:07:34;9.10;99.90
17918;DHT22;9084;50.956;3.106;2023-04-24T01:10:00;9.10;99.90
17918;DHT22;9084;50.956;3.106;2023-04-24T01:12:25;9.10;99.90
17918;DHT22;9084;50.956;3.106;2023-04-24T01:14:51;9.10;99.90
17918;DHT22;9084;50.956;3.106;2023-04-24T01:17:17;9.10;99.90
17918;DHT22;9084;50.956;3.106;2023-04-24T01:19:43;9.10;99.90
17918;DHT22;9084;50.956;3.106;2023-04-24T01:22:16;9.00;99.90
17918;DHT22;9084;50.956;3.106;2023-04-24T01:24:43;9.10;99.90
17918;DHT22;9084;50.956;3.106;2023-04-24T01:27:10;9.00;99.90
17918;DHT22;9084;50.956;3.106;2023-04-24T01:29:36;9.10;99.90
17918;DHT22;9084;50.956;3.106;2023-04-24T01:32:03;9.00;99.90
17918;DHT22;9084;50.956;3.106;2023-04-24T01:34:29;9.00;99.90
17918;DHT22;9084;50.956;3.106;2023-04-24T01:36:55;9.00;99.90
17918;DHT22;9084;50.956;3.106;2023-04-24T01:39:23;9.00;99.90
17918;DHT22;9084;50.956;3.106;2023-04-24T01:41:51;9.00;99.90
17918;DHT22;9084;50.956;3.106;2023-04-24T01:44:18;9.00;99.90
17918;DHT22;9084;50.956;3.106;2023-04-24T01:46:46;9.10;99.90
17918;DHT22;9084;50.956;3.106;2023-04-24T01:49:12;9.10;99.90
17918;DHT22;9084;50.956;3.106;2023-04-24T01:51:42;9.10;99.90
17918;DHT22;9084;50.956;3.106;2023-04-24T01:54:07;9.20;99.90
17918;DHT22;9084;50.956;3.106;2023-04-24T01:56:34;9.20;99.90
17918;DHT22;9084;50.956;3.106;2023-04-24T01:59:03;9.20;99.90
17918;DHT22;9084;50.956;3.106;2023-04-24T02:01:36;9.20;99.90
17918;DHT22;9084;50.956;3.106;2023-04-24T02:04:03;9.30;99.90
17918;DHT22;9084;50.956;3.106;2023-04-24T02:06:31;9.30;99.90
17918;DHT22;9084;50.956;3.106;2023-04-24T02:08:58;9.20;99.90
17918;DHT22;9084;50.956;3.106;2023-04-24T02:11:24;9.20;99.90
17918;DHT22;9084;50.956;3.106;2023-04-24T02:13:55;9.20;99.90
17918;DHT22;9084;50.956;3.106;2023-04-24T02:16:20;9.30;99.90
17918;DHT22;9084;50.956;3.106;2023-04-24T02:18:46;9.20;99.90
17918;DHT22;9084;50.956;3.106;2023-04-24T02:21:12;9.20;99.90
17918;DHT22;9084;50.956;3.106;2023-04-24T02:23:37;9.20;99.90
17918;DHT22;9084;50.956;3.106;2023-04-24T02:26:03;9.20;99.90
17918;DHT22;9084;50.956;3.106;2023-04-24T02:28:29;9.20;99.90
17918;DHT22;9084;50.956;3.106;2023-04-24T02:30:54;9.20;99.90
17918;DHT22;9084;50.956;3.106;2023-04-24T02:33:22;9.20;99.90
17918;DHT22;9084;50.956;3.106;2023-04-24T02:35:48;9.20;99.90
17918;DHT22;9084;50.956;3.106;2023-04-24T02:38:14;9.20;99.90
17918;DHT22;9084;50.956;3.106;2023-04-24T02:40:42;9.10;99.90
17918;DHT22;9084;50.956;3.106;2023-04-24T02:43:08;9.20;99.90
17918;DHT22;9084;50.956;3.106;2023-04-24T02:45:33;9.20;99.90
17918;DHT22;9084;50.956;3.106;2023-04-24T02:48:01;9.10;99.90
17918;DHT22;9084;50.956;3.106;2023-04-24T02:50:27;9.10;99.90
17918;DHT22;9084;50.956;3.106;2023-04-24T02:52:52;9.10;99.90
17918;DHT22;9084;50.956;3.106;2023-04-24T02:55:20;9.10;99.90
17918;DHT22;9084;50.956;3.106;2023-04-24T02:57:48;9.00;99.90
17918;DHT22;9084;50.956;3.106;2023-04-24T03:00:14;9.00;99.90
17918;DHT22;9084;50.956;3.106;2023-04-24T03:02:40;8.90;99.90
17918;DHT22;9084;50.956;3.106;2023-04-24T03:05:08;8.90;99.90
17918;DHT22;9084;50.956;3.106;2023-04-24T03:07:34;8.90;99.90
17918;DHT22;9084;50.956;3.106;2023-04-24T03:10:03;8.80;99.90
17918;DHT22;9084;50.956;3.106;2023-04-24T03:12:30;8.90;99.90
17918;DHT22;9084;50.956;3.106;2023-04-24T03:14:55;8.80;99.90
17918;DHT22;9084;50.956;3.106;2023-04-24T03:17:21;8.80;99.90
17918;DHT22;9084;50.956;3.106;2023-04-24T03:19:49;8.80;99.90
17918;DHT22;9084;50.956;3.106;2023-04-24T03:22:17;8.70;99.90
17918;DHT22;9084;50.956;3.106;2023-04-24T03:24:43;8.70;99.90
17918;DHT22;9084;50.956;3.106;2023-04-24T03:27:09;8.70;99.90
17918;DHT22;9084;50.956;3.106;2023-04-24T03:29:35;8.70;99.90
17918;DHT22;9084;50.956;3.106;2023-04-24T03:32:05;8.70;99.90
17918;DHT22;9084;50.956;3.106;2023-04-24T03:34:33;8.60;99.90
17918;DHT22;9084;50.956;3.106;2023-04-24T03:36:58;8.60;99.90
17918;DHT22;9084;50.956;3.106;2023-04-24T03:39:24;8.70;99.90
17918;DHT22;9084;50.956;3.106;2023-04-24T03:41:50;8.60;99.90
17918;DHT22;9084;50.956;3.106;2023-04-24T03:44:16;8.60;99.90
17918;DHT22;9084;50.956;3.106;2023-04-24T03:46:41;8.60;99.90
17918;DHT22;9084;50.956;3.106;2023-04-24T03:49:09;8.60;99.90
17918;DHT22;9084;50.956;3.106;2023-04-24T03:51:35;8.60;99.90
17918;DHT22;9084;50.956;3.106;2023-04-24T03:54:00;8.60;99.90
17918;DHT22;9084;50.956;3.106;2023-04-24T03:56:26;8.50;99.90
17918;DHT22;9084;50.956;3.106;2023-04-24T03:58:51;8.60;99.90
17918;DHT22;9084;50.956;3.106;2023-04-24T04:01:17;8.50;99.90
17918;DHT22;9084;50.956;3.106;2023-04-24T04:03:46;8.50;99.90
17918;DHT22;9084;50.956;3.106;2023-04-24T04:06:11;8.40;99.90
17918;DHT22;9084;50.956;3.106;2023-04-24T04:08:38;8.40;99.90
17918;DHT22;9084;50.956;3.106;2023-04-24T04:11:04;8.30;99.90
17918;DHT22;9084;50.956;3.106;2023-04-24T04:13:29;8.30;99.90
17918;DHT22;9084;50.956;3.106;2023-04-24T04:15:55;8.30;99.90
17918;DHT22;9084;50.956;3.106;2023-04-24T04:18:21;8.30;99.90
17918;DHT22;9084;50.956;3.106;2023-04-24T04:20:46;8.30;99.90
17918;DHT22;9084;50.956;3.106;2023-04-24T04:23:14;8.30;99.90
17918;DHT22;9084;50.956;3.106;2023-04-24T04:25:40;8.30;99.90
17918;DHT22;9084;50.956;3.106;2023-04-24T04:28:05;8.30;99.90
17918;DHT22;9084;50.956;3.106;2023-04-24T04:30:31;8.30;99.90
17918;DHT22;9084;50.956;3.106;2023-04-24T04:32:58;8.40;99.90
17918;DHT22;9084;50.956;3.106;2023-04-24T04:35:24;8.50;99.90
17918;DHT22;9084;50.956;3.106;2023-04-24T04:37:50;8.50;99.90
17918;DHT22;9084;50.956;3.106;2023-04-24T04:40:16;8.50;99.90
17918;DHT22;9084;50.956;3.106;2023-04-24T04:42:42;8.50;99.90
17918;DHT22;9084;50.956;3.106;2023-04-24T04:45:11;8.60;99.90
17918;DHT22;9084;50.956;3.106;2023-04-24T04:47:37;8.60;99.90
17918;DHT22;9084;50.956;3.106;2023-04-24T04:50:03;8.60;99.90
17918;DHT22;9084;50.956;3.106;2023-04-24T04:52:30;8.60;99.90
17918;DHT22;9084;50.956;3.106;2023-04-24T04:54:59;8.60;99.90
17918;DHT22;9084;50.956;3.106;2023-04-24T04:57:24;8.70;99.90
17918;DHT22;9084;50.956;3.106;2023-04-24T04:59:50;8.60;99.90
17918;DHT22;9084;50.956;3.106;2023-04-24T05:02:16;8.60;99.90
17918;DHT22;9084;50.956;3.106;2023-04-24T05:04:44;8.60;99.90
17918;DHT22;9084;50.956;3.106;2023-04-24T05:07:13;8.70;99.90
17918;DHT22;9084;50.956;3.106;2023-04-24T05:09:38;8.60;99.90
17918;DHT22;9084;50.956;3.106;2023-04-24T05:12:06;8.70;99.90
17918;DHT22;9084;50.956;3.106;2023-04-24T05:14:32;8.70;99.90
17918;DHT22;9084;50.956;3.106;2023-04-24T05:16:58;8.70;99.90
17918;DHT22;9084;50.956;3.106;2023-04-24T05:19:25;8.70;99.90
17918;DHT22;9084;50.956;3.106;2023-04-24T05:21:53;8.80;99.90
17918;DHT22;9084;50.956;3.106;2023-04-24T05:24:18;8.80;99.90
17918;DHT22;9084;50.956;3.106;2023-04-24T05:26:46;8.80;99.90
17918;DHT22;9084;50.956;3.106;2023-04-24T05:29:12;8.90;99.90
17918;DHT22;9084;50.956;3.106;2023-04-24T05:31:38;8.90;99.90
17918;DHT22;9084;50.956;3.106;2023-04-24T05:34:03;8.90;99.90
17918;DHT22;9084;50.956;3.106;2023-04-24T05:36:30;9.00;99.90
17918;DHT22;9084;50.956;3.106;2023-04-24T05:38:56;9.00;99.90
17918;DHT22;9084;50.956;3.106;2023-04-24T05:41:26;9.00;99.90
17918;DHT22;9084;50.956;3.106;2023-04-24T05:43:55;9.10;99.90
17918;DHT22;9084;50.956;3.106;2023-04-24T05:46:20;9.10;99.90
17918;DHT22;9084;50.956;3.106;2023-04-24T05:48:46;9.10;99.90
17918;DHT22;9084;50.956;3.106;2023-04-24T05:51:12;9.10;99.90
17918;DHT22;9084;50.956;3.106;2023-04-24T05:53:37;9.10;99.90
17918;DHT22;9084;50.956;3.106;2023-04-24T05:56:03;9.10;99.90
17918;DHT22;9084;50.956;3.106;2023-04-24T05:58:31;9.10;99.90
17918;DHT22;9084;50.956;3.106;2023-04-24T06:00:56;9.10;99.90
17918;DHT22;9084;50.956;3.106;2023-04-24T06:03:24;9.20;99.90
17918;DHT22;9084;50.956;3.106;2023-04-24T06:05:50;9.20;99.90
17918;DHT22;9084;50.956;3.106;2023-04-24T06:08:19;9.20;99.90
17918;DHT22;9084;50.956;3.106;2023-04-24T06:10:45;9.20;99.90
17918;DHT22;9084;50.956;3.106;2023-04-24T06:13:11;9.30;99.90
17918;DHT22;9084;50.956;3.106;2023-04-24T06:15:39;9.30;99.90
17918;DHT22;9084;50.956;3.106;2023-04-24T06:18:06;9.30;99.90
17918;DHT22;9084;50.956;3.106;2023-04-24T06:20:31;9.30;99.90
17918;DHT22;9084;50.956;3.106;2023-04-24T06:22:59;9.40;99.90
17918;DHT22;9084;50.956;3.106;2023-04-24T06:25:26;9.50;99.90
17918;DHT22;9084;50.956;3.106;2023-04-24T06:27:52;9.50;99.90
17918;DHT22;9084;50.956;3.106;2023-04-24T06:30:20;9.50;99.90
17918;DHT22;9084;50.956;3.106;2023-04-24T06:32:45;9.70;99.90
17918;DHT22;9084;50.956;3.106;2023-04-24T06:35:13;9.60;99.90
17918;DHT22;9084;50.956;3.106;2023-04-24T06:37:42;9.60;99.90
17918;DHT22;9084;50.956;3.106;2023-04-24T06:40:08;9.60;99.90
17918;DHT22;9084;50.956;3.106;2023-04-24T06:42:37;9.60;99.90
17918;DHT22;9084;50.956;3.106;2023-04-24T06:45:05;9.60;99.90
17918;DHT22;9084;50.956;3.106;2023-04-24T06:47:31;9.60;99.90
17918;DHT22;9084;50.956;3.106;2023-04-24T06:49:57;9.80;99.90
17918;DHT22;9084;50.956;3.106;2023-04-24T06:52:25;10.00;99.90
17918;DHT22;9084;50.956;3.106;2023-04-24T06:54:51;10.10;99.90
17918;DHT22;9084;50.956;3.106;2023-04-24T06:57:19;10.20;99.90
17918;DHT22;9084;50.956;3.106;2023-04-24T06:59:45;10.30;99.90
17918;DHT22;9084;50.956;3.106;2023-04-24T07:02:11;10.30;99.90
17918;DHT22;9084;50.956;3.106;2023-04-24T07:04:37;10.30;99.90
17918;DHT22;9084;50.956;3.106;2023-04-24T07:07:05;10.20;99.90
17918;DHT22;9084;50.956;3.106;2023-04-24T07:09:37;10.10;99.90
17918;DHT22;9084;50.956;3.106;2023-04-24T07:12:04;10.00;99.90
17918;DHT22;9084;50.956;3.106;2023-04-24T07:14:29;9.90;99.90
17918;DHT22;9084;50.956;3.106;2023-04-24T07:16:57;10.00;99.90
17918;DHT22;9084;50.956;3.106;2023-04-24T07:19:23;10.20;99.90
17918;DHT22;9084;50.956;3.106;2023-04-24T07:21:49;10.30;99.90
17918;DHT22;9084;50.956;3.106;2023-04-24T07:24:15;10.50;99.90
17918;DHT22;9084;50.956;3.106;2023-04-24T07:26:41;10.40;99.90
17918;DHT22;9084;50.956;3.106;2023-04-24T07:29:09;10.40;99.90
17918;DHT22;9084;50.956;3.106;2023-04-24T07:31:37;10.30;99.90
17918;DHT22;9084;50.956;3.106;2023-04-24T07:34:06;10.30;99.90
17918;DHT22;9084;50.956;3.106;2023-04-24T07:36:32;10.30;99.90
17918;DHT22;9084;50.956;3.106;2023-04-24T07:38:57;10.20;99.90
17918;DHT22;9084;50.956;3.106;2023-04-24T07:41:23;10.10;99.90
17918;DHT22;9084;50.956;3.106;2023-04-24T07:43:49;10.00;99.90
17918;DHT22;9084;50.956;3.106;2023-04-24T07:46:15;10.00;99.90
17918;DHT22;9084;50.956;3.106;2023-04-24T07:48:43;10.00;99.90
17918;DHT22;9084;50.956;3.106;2023-04-24T07:51:11;10.20;99.90
17918;DHT22;9084;50.956;3.106;2023-04-24T07:53:39;10.30;99.90
17918;DHT22;9084;50.956;3.106;2023-04-24T07:56:05;10.60;99.90
17918;DHT22;9084;50.956;3.106;2023-04-24T07:58:31;10.80;99.90
17918;DHT22;9084;50.956;3.106;2023-04-24T08:00:56;11.00;99.90
17918;DHT22;9084;50.956;3.106;2023-04-24T08:03:22;11.00;99.90
17918;DHT22;9084;50.956;3.106;2023-04-24T08:05:49;11.00;99.90
17918;DHT22;9084;50.956;3.106;2023-04-24T08:08:16;11.00;99.90
17918;DHT22;9084;50.956;3.106;2023-04-24T08:10:42;10.90;99.90
17918;DHT22;9084;50.956;3.106;2023-04-24T08:13:08;11.00;99.90
17918;DHT22;9084;50.956;3.106;2023-04-24T08:15:36;11.00;99.90
17918;DHT22;9084;50.956;3.106;2023-04-24T08:18:02;10.90;99.90
17918;DHT22;9084;50.956;3.106;2023-04-24T08:20:28;10.90;99.90
17918;DHT22;9084;50.956;3.106;2023-04-24T08:23:00;10.80;99.90
17918;DHT22;9084;50.956;3.106;2023-04-24T08:25:26;10.80;99.90
17918;DHT22;9084;50.956;3.106;2023-04-24T08:27:51;10.80;99.90
17918;DHT22;9084;50.956;3.106;2023-04-24T08:30:18;10.80;99.90
17918;DHT22;9084;50.956;3.106;2023-04-24T08:32:47;10.80;99.90
17918;DHT22;9084;50.956;3.106;2023-04-24T08:35:13;10.90;99.90
17918;DHT22;9084;50.956;3.106;2023-04-24T08:37:38;11.00;99.90
17918;DHT22;9084;50.956;3.106;2023-04-24T08:40:12;11.20;99.90
17918;DHT22;9084;50.956;3.106;2023-04-24T08:42:40;11.30;99.90
17918;DHT22;9084;50.956;3.106;2023-04-24T08:45:10;11.50;99.90
17918;DHT22;9084;50.956;3.106;2023-04-24T08:47:38;11.60;99.90
17918;DHT22;9084;50.956;3.106;2023-04-24T08:50:07;11.70;99.90
17918;DHT22;9084;50.956;3.106;2023-04-24T08:52:35;11.80;99.90
17918;DHT22;9084;50.956;3.106;2023-04-24T08:55:04;11.90;99.90
17918;DHT22;9084;50.956;3.106;2023-04-24T08:57:31;12.10;99.90
17918;DHT22;9084;50.956;3.106;2023-04-24T09:00:00;12.10;99.90
17918;DHT22;9084;50.956;3.106;2023-04-24T09:02:26;12.20;99.90
17918;DHT22;9084;50.956;3.106;2023-04-24T09:04:52;12.10;99.90
17918;DHT22;9084;50.956;3.106;2023-04-24T09:07:19;12.10;99.90
17918;DHT22;9084;50.956;3.106;2023-04-24T09:09:48;12.10;99.90
17918;DHT22;9084;50.956;3.106;2023-04-24T09:12:16;12.10;99.90
17918;DHT22;9084;50.956;3.106;2023-04-24T09:14:45;12.10;99.90
17918;DHT22;9084;50.956;3.106;2023-04-24T09:17:11;12.00;99.90
17918;DHT22;9084;50.956;3.106;2023-04-24T09:19:37;12.10;99.90
17918;DHT22;9084;50.956;3.106;2023-04-24T09:22:06;12.20;99.90
17918;DHT22;9084;50.956;3.106;2023-04-24T09:24:32;12.30;99.90
17918;DHT22;9084;50.956;3.106;2023-04-24T09:26:58;12.40;99.90
17918;DHT22;9084;50.956;3.106;2023-04-24T09:29:26;12.50;99.90
17918;DHT22;9084;50.956;3.106;2023-04-24T09:31:52;12.60;99.90
17918;DHT22;9084;50.956;3.106;2023-04-24T09:34:23;12.50;99.90
17918;DHT22;9084;50.956;3.106;2023-04-24T09:36:51;12.50;99.90
17918;DHT22;9084;50.956;3.106;2023-04-24T09:39:20;12.40;99.90
17918;DHT22;9084;50.956;3.106;2023-04-24T09:41:52;12.30;99.90
17918;DHT22;9084;50.956;3.106;2023-04-24T09:44:19;12.20;99.90
17918;DHT22;9084;50.956;3.106;2023-04-24T09:46:50;12.10;99.90
17918;DHT22;9084;50.956;3.106;2023-04-24T09:49:23;12.20;99.90
17918;DHT22;9084;50.956;3.106;2023-04-24T09:51:49;12.40;99.90
17918;DHT22;9084;50.956;3.106;2023-04-24T09:56:46;12.70;99.90
17918;DHT22;9084;50.956;3.106;2023-04-24T09:59:17;12.70;99.90
17918;DHT22;9084;50.956;3.106;2023-04-24T10:01:43;12.70;99.90
17918;DHT22;9084;50.956;3.106;2023-04-24T10:06:46;12.50;99.90
17918;DHT22;9084;50.956;3.106;2023-04-24T10:09:15;12.40;99.90
17918;DHT22;9084;50.956;3.106;2023-04-24T10:11:43;12.40;99.90
17918;DHT22;9084;50.956;3.106;2023-04-24T10:14:14;12.50;99.90
17918;DHT22;9084;50.956;3.106;2023-04-24T10:16:43;12.70;99.90
17918;DHT22;9084;50.956;3.106;2023-04-24T10:19:10;12.80;99.90
17918;DHT22;9084;50.956;3.106;2023-04-24T10:21:40;13.10;99.90
17918;DHT22;9084;50.956;3.106;2023-04-24T10:24:08;13.20;99.90
17918;DHT22;9084;50.956;3.106;2023-04-24T10:26:34;13.40;99.90
17918;DHT22;9084;50.956;3.106;2023-04-24T10:29:05;13.60;99.90
17918;DHT22;9084;50.956;3.106;2023-04-24T10:31:36;13.80;99.90
17918;DHT22;9084;50.956;3.106;2023-04-24T10:34:03;13.80;99.90
17918;DHT22;9084;50.956;3.106;2023-04-24T10:36:32;13.90;99.90
17918;DHT22;9084;50.956;3.106;2023-04-24T10:39:00;14.10;99.90
17918;DHT22;9084;50.956;3.106;2023-04-24T10:41:30;14.10;99.90
17918;DHT22;9084;50.956;3.106;2023-04-24T10:44:06;14.00;99.90
17918;DHT22;9084;50.956;3.106;2023-04-24T10:46:35;13.90;99.90
17918;DHT22;9084;50.956;3.106;2023-04-24T10:49:04;13.80;99.90
17918;DHT22;9084;50.956;3.106;2023-04-24T10:52:03;13.80;99.90
17918;DHT22;9084;50.956;3.106;2023-04-24T10:54:40;13.70;99.90
17918;DHT22;9084;50.956;3.106;2023-04-24T11:02:37;13.50;99.90
17918;DHT22;9084;50.956;3.106;2023-04-24T11:05:03;13.40;99.90
17918;DHT22;9084;50.956;3.106;2023-04-24T11:07:29;13.30;99.90
17918;DHT22;9084;50.956;3.106;2023-04-24T11:10:00;13.30;99.90
17918;DHT22;9084;50.956;3.106;2023-04-24T11:12:26;13.30;99.90
17918;DHT22;9084;50.956;3.106;2023-04-24T11:17:34;13.50;99.90
17918;DHT22;9084;50.956;3.106;2023-04-24T11:20:07;13.50;99.90
17918;DHT22;9084;50.956;3.106;2023-04-24T11:22:35;13.60;99.90
17918;DHT22;9084;50.956;3.106;2023-04-24T11:25:02;13.70;99.90
17918;DHT22;9084;50.956;3.106;2023-04-24T11:27:38;13.90;99.90
17918;DHT22;9084;50.956;3.106;2023-04-24T11:30:04;13.90;99.90
17918;DHT22;9084;50.956;3.106;2023-04-24T11:35:00;14.00;99.90
17918;DHT22;9084;50.956;3.106;2023-04-24T11:37:37;14.20;99.90
17918;DHT22;9084;50.956;3.106;2023-04-24T11:40:05;14.30;99.90
17918;DHT22;9084;50.956;3.106;2023-04-24T11:42:39;14.20;99.90
17918;DHT22;9084;50.956;3.106;2023-04-24T11:45:13;14.30;99.90
17918;DHT22;9084;50.956;3.106;2023-04-24T11:47:44;14.30;99.90
17918;DHT22;9084;50.956;3.106;2023-04-24T11:50:21;14.20;99.90
17918;DHT22;9084;50.956;3.106;2023-04-24T11:52:48;14.10;99.90
17918;DHT22;9084;50.956;3.106;2023-04-24T11:57:43;14.00;99.90
17918;DHT22;9084;50.956;3.106;2023-04-24T12:00:22;14.10;99.90
17918;DHT22;9084;50.956;3.106;2023-04-24T12:02:48;14.10;99.90
17918;DHT22;9084;50.956;3.106;2023-04-24T12:05:25;14.00;99.90
17918;DHT22;9084;50.956;3.106;2023-04-24T12:07:52;13.90;99.90
17918;DHT22;9084;50.956;3.106;2023-04-24T12:10:27;13.70;99.90
17918;DHT22;9084;50.956;3.106;2023-04-24T12:12:55;13.50;99.90
17918;DHT22;9084;50.956;3.106;2023-04-24T12:15:21;13.40;99.90
17918;DHT22;9084;50.956;3.106;2023-04-24T12:17:54;13.30;99.90
17918;DHT22;9084;50.956;3.106;2023-04-24T12:20:31;13.10;99.90
17918;DHT22;9084;50.956;3.106;2023-04-24T12:22:58;12.80;99.90
17918;DHT22;9084;50.956;3.106;2023-04-24T12:25:29;12.70;99.90
17918;DHT22;9084;50.956;3.106;2023-04-24T12:30:48;12.60;99.90
17918;DHT22;9084;50.956;3.106;2023-04-24T12:33:20;12.60;99.90
17918;DHT22;9084;50.956;3.106;2023-04-24T12:35:51;12.50;99.90
17918;DHT22;9084;50.956;3.106;2023-04-24T12:38:25;12.50;99.90
17918;DHT22;9084;50.956;3.106;2023-04-24T12:41:03;12.60;99.90
17918;DHT22;9084;50.956;3.106;2023-04-24T12:43:29;12.60;99.90
17918;DHT22;9084;50.956;3.106;2023-04-24T12:45:55;12.60;99.90
17918;DHT22;9084;50.956;3.106;2023-04-24T12:48:25;12.70;99.90
17918;DHT22;9084;50.956;3.106;2023-04-24T12:50:50;12.80;99.90
17918;DHT22;9084;50.956;3.106;2023-04-24T12:53:16;12.90;99.90
17918;DHT22;9084;50.956;3.106;2023-04-24T12:55:42;12.90;99.90
17918;DHT22;9084;50.956;3.106;2023-04-24T12:58:07;12.90;99.90
17918;DHT22;9084;50.956;3.106;2023-04-24T13:00:33;12.90;99.90
17918;DHT22;9084;50.956;3.106;2023-04-24T13:03:01;13.00;99.90
17918;DHT22;9084;50.956;3.106;2023-04-24T13:05:27;13.10;99.90
17918;DHT22;9084;50.956;3.106;2023-04-24T13:07:53;13.00;99.90
17918;DHT22;9084;50.956;3.106;2023-04-24T13:10:19;13.00;99.90
17918;DHT22;9084;50.956;3.106;2023-04-24T13:12:45;13.00;99.90
17918;DHT22;9084;50.956;3.106;2023-04-24T13:15:14;13.10;99.90
17918;DHT22;9084;50.956;3.106;2023-04-24T13:17:39;13.20;99.90
17918;DHT22;9084;50.956;3.106;2023-04-24T13:20:05;13.20;99.20
17918;DHT22;9084;50.956;3.106;2023-04-24T13:22:31;13.20;99.80
17918;DHT22;9084;50.956;3.106;2023-04-24T13:24:57;13.10;99.00
17918;DHT22;9084;50.956;3.106;2023-04-24T13:27:22;13.20;99.90
17918;DHT22;9084;50.956;3.106;2023-04-24T13:29:48;13.30;99.90
17918;DHT22;9084;50.956;3.106;2023-04-24T13:32:14;13.40;99.90
17918;DHT22;9084;50.956;3.106;2023-04-24T13:34:42;13.60;99.90
17918;DHT22;9084;50.956;3.106;2023-04-24T13:37:10;13.70;99.40
17918;DHT22;9084;50.956;3.106;2023-04-24T13:39:38;13.90;99.00
17918;DHT22;9084;50.956;3.106;2023-04-24T13:42:04;14.20;99.90
17918;DHT22;9084;50.956;3.106;2023-04-24T13:44:32;14.30;97.40
17918;DHT22;9084;50.956;3.106;2023-04-24T13:46:58;14.50;96.30
17918;DHT22;9084;50.956;3.106;2023-04-24T13:49:28;14.60;95.70
17918;DHT22;9084;50.956;3.106;2023-04-24T13:51:55;14.70;93.80
17918;DHT22;9084;50.956;3.106;2023-04-24T13:54:23;14.60;93.80
17918;DHT22;9084;50.956;3.106;2023-04-24T13:56:51;14.50;94.00
17918;DHT22;9084;50.956;3.106;2023-04-24T13:59:17;14.40;94.40
17918;DHT22;9084;50.956;3.106;2023-04-24T14:01:44;14.30;93.80
17918;DHT22;9084;50.956;3.106;2023-04-24T14:04:10;14.30;94.60
17918;DHT22;9084;50.956;3.106;2023-04-24T14:06:36;14.20;94.60
17918;DHT22;9084;50.956;3.106;2023-04-24T14:09:02;14.10;94.70
17918;DHT22;9084;50.956;3.106;2023-04-24T14:11:28;14.00;94.10
17918;DHT22;9084;50.956;3.106;2023-04-24T14:13:54;13.90;95.70
17918;DHT22;9084;50.956;3.106;2023-04-24T14:16:21;13.80;96.50
17918;DHT22;9084;50.956;3.106;2023-04-24T14:18:50;13.70;96.40
17918;DHT22;9084;50.956;3.106;2023-04-24T14:21:16;13.60;96.30
17918;DHT22;9084;50.956;3.106;2023-04-24T14:23:41;13.60;98.40
17918;DHT22;9084;50.956;3.106;2023-04-24T14:26:07;13.50;98.10
17918;DHT22;9084;50.956;3.106;2023-04-24T14:28:35;13.50;98.80
17918;DHT22;9084;50.956;3.106;2023-04-24T14:31:03;13.40;98.10
17918;DHT22;9084;50.956;3.106;2023-04-24T14:33:29;13.50;98.60
17918;DHT22;9084;50.956;3.106;2023-04-24T14:35:54;13.50;98.20
17918;DHT22;9084;50.956;3.106;2023-04-24T14:38:21;13.70;97.10
17918;DHT22;9084;50.956;3.106;2023-04-24T14:40:49;13.90;93.50
17918;DHT22;9084;50.956;3.106;2023-04-24T14:43:17;14.00;93.00
17918;DHT22;9084;50.956;3.106;2023-04-24T14:45:43;14.20;93.10
17918;DHT22;9084;50.956;3.106;2023-04-24T14:48:08;14.10;91.80
17918;DHT22;9084;50.956;3.106;2023-04-24T14:50:36;14.20;92.40
17918;DHT22;9084;50.956;3.106;2023-04-24T14:53:02;14.30;91.20
17918;DHT22;9084;50.956;3.106;2023-04-24T14:55:28;14.50;91.50
17918;DHT22;9084;50.956;3.106;2023-04-24T14:57:54;14.60;91.80
17918;DHT22;9084;50.956;3.106;2023-04-24T15:00:20;14.70;91.00
17918;DHT22;9084;50.956;3.106;2023-04-24T15:02:46;14.70;90.60
17918;DHT22;9084;50.956;3.106;2023-04-24T15:05:14;14.70;90.10
17918;DHT22;9084;50.956;3.106;2023-04-24T15:07:40;14.60;89.60
17918;DHT22;9084;50.956;3.106;2023-04-24T15:10:07;14.60;91.30
17918;DHT22;9084;50.956;3.106;2023-04-24T15:12:33;14.80;90.70
17918;DHT22;9084;50.956;3.106;2023-04-24T15:14:59;14.90;89.70
17918;DHT22;9084;50.956;3.106;2023-04-24T15:17:26;14.70;88.40
17918;DHT22;9084;50.956;3.106;2023-04-24T15:19:52;14.60;90.00
17918;DHT22;9084;50.956;3.106;2023-04-24T15:22:20;14.40;90.60
17918;DHT22;9084;50.956;3.106;2023-04-24T15:24:51;14.30;91.10
17918;DHT22;9084;50.956;3.106;2023-04-24T15:27:19;14.20;91.00
17918;DHT22;9084;50.956;3.106;2023-04-24T15:29:46;14.00;91.70
17918;DHT22;9084;50.956;3.106;2023-04-24T15:32:12;13.80;91.90
17918;DHT22;9084;50.956;3.106;2023-04-24T15:34:40;13.60;90.30
17918;DHT22;9084;50.956;3.106;2023-04-24T15:37:06;13.40;90.50
17918;DHT22;9084;50.956;3.106;2023-04-24T15:39:31;13.30;91.90
17918;DHT22;9084;50.956;3.106;2023-04-24T15:41:59;13.20;92.50
17918;DHT22;9084;50.956;3.106;2023-04-24T15:44:25;13.20;93.20
17918;DHT22;9084;50.956;3.106;2023-04-24T15:46:51;13.20;94.60
17918;DHT22;9084;50.956;3.106;2023-04-24T15:49:17;13.30;94.60
17918;DHT22;9084;50.956;3.106;2023-04-24T15:51:43;13.40;94.40
17918;DHT22;9084;50.956;3.106;2023-04-24T15:54:09;13.40;94.10
17918;DHT22;9084;50.956;3.106;2023-04-24T15:56:37;13.40;92.20
17918;DHT22;9084;50.956;3.106;2023-04-24T15:59:05;13.40;91.90
17918;DHT22;9084;50.956;3.106;2023-04-24T16:01:30;13.40;91.90
17918;DHT22;9084;50.956;3.106;2023-04-24T16:03:56;13.30;91.90
17918;DHT22;9084;50.956;3.106;2023-04-24T16:06:22;13.30;93.20
17918;DHT22;9084;50.956;3.106;2023-04-24T16:08:47;13.30;93.40
17918;DHT22;9084;50.956;3.106;2023-04-24T16:11:13;13.30;92.80
17918;DHT22;9084;50.956;3.106;2023-04-24T16:13:41;13.30;93.50